createdAt,value
2023-05-14T00:00:54.921Z,7.13
2023-05-14T00:03:21.712Z,6.88
2023-05-14T00:05:48.527Z,6.15
2023-05-14T00:08:17.951Z,6.40
2023-05-14T00:10:44.714Z,6.68
2023-05-14T00:13:11.293Z,6.78
2023-05-14T00:15:38.005Z,6.88
2023-05-14T00:18:04.788Z,7.68
2023-05-14T00:20:31.383Z,8.25
2023-05-14T00:22:57.966Z,7.53
2023-05-14T00:25:24.557Z,7.13
2023-05-14T00:27:51.196Z,6.47
2023-05-14T00:30:17.867Z,6.55
2023-05-14T00:32:44.510Z,7.28
2023-05-14T00:35:11.207Z,6.20
2023-05-14T00:37:37.894Z,6.30
2023-05-14T00:40:06.872Z,6.68
2023-05-14T00:42:34.230Z,7.43
2023-05-14T00:45:00.833Z,7.70
2023-05-14T00:47:27.576Z,6.70
2023-05-14T00:49:54.294Z,7.63
2023-05-14T00:52:21.412Z,7.38
2023-05-14T00:54:48.141Z,7.82
2023-05-14T00:57:14.695Z,7.75
2023-05-14T00:59:42.583Z,8.05
2023-05-14T01:02:09.432Z,8.27
2023-05-14T01:04:36.239Z,7.97
2023-05-14T01:07:05.921Z,7.65
2023-05-14T01:09:46.268Z,8.13
2023-05-14T01:12:34.321Z,5.90
2023-05-14T01:15:11.022Z,6.22
2023-05-14T01:17:43.576Z,6.30
2023-05-14T01:20:10.772Z,6.88
2023-05-14T01:22:37.822Z,6.65
2023-05-14T01:25:05.936Z,6.95
2023-05-14T01:27:57.629Z,6.32
2023-05-14T01:33:10.459Z,6.93
2023-05-14T01:35:37.327Z,6.30
2023-05-14T01:38:07.079Z,6.38
2023-05-14T01:40:34.040Z,7.35
2023-05-14T01:43:00.805Z,7.68
2023-05-14T01:45:27.782Z,7.05
2023-05-14T01:47:54.709Z,6.85
2023-05-14T01:50:21.881Z,6.78
2023-05-14T01:52:48.690Z,7.22
2023-05-14T01:55:18.434Z,7.28
2023-05-14T01:57:45.060Z,6.53
2023-05-14T02:00:12.063Z,6.75
2023-05-14T02:02:41.236Z,7.15
2023-05-14T02:05:10.731Z,6.40
2023-05-14T02:07:37.539Z,8.02
2023-05-14T02:10:04.317Z,7.32
2023-05-14T02:12:32.213Z,7.32
2023-05-14T02:14:58.759Z,6.90
2023-05-14T02:17:26.272Z,7.22
2023-05-14T02:19:52.991Z,7.35
2023-05-14T02:22:19.588Z,8.05
2023-05-14T02:24:46.218Z,8.05
2023-05-14T02:27:13.289Z,7.95
2023-05-14T02:29:39.896Z,9.32
2023-05-14T02:32:06.870Z,7.80
2023-05-14T02:34:34.505Z,8.27
2023-05-14T02:37:01.213Z,7.10
2023-05-14T02:39:27.883Z,9.15
2023-05-14T02:41:54.720Z,7.57
2023-05-14T02:44:21.472Z,7.47
2023-05-14T02:46:48.084Z,7.60
2023-05-14T02:49:14.710Z,7.93
2023-05-14T02:51:41.346Z,8.57
2023-05-14T02:54:08.206Z,8.25
2023-05-14T02:56:35.011Z,8.02
2023-05-14T02:59:01.841Z,8.38
2023-05-14T03:01:29.080Z,7.13
2023-05-14T03:03:56.158Z,7.25
2023-05-14T03:06:22.750Z,7.03
2023-05-14T03:08:49.342Z,7.57
2023-05-14T03:11:15.970Z,7.40
2023-05-14T03:13:42.599Z,6.90
2023-05-14T03:16:09.310Z,6.80
2023-05-14T03:18:37.106Z,7.05
2023-05-14T03:21:03.970Z,7.50
2023-05-14T03:23:31.989Z,6.63
2023-05-14T03:25:58.818Z,6.53
2023-05-14T03:28:26.013Z,7.30
2023-05-14T03:30:52.859Z,8.35
2023-05-14T03:33:19.690Z,7.82
2023-05-14T03:35:46.253Z,7.38
2023-05-14T03:38:12.829Z,6.70
2023-05-14T03:40:39.398Z,8.25
2023-05-14T03:43:06.089Z,7.60
2023-05-14T03:45:33.433Z,7.85
2023-05-14T03:48:00.129Z,8.40
2023-05-14T03:50:26.912Z,7.47
2023-05-14T03:52:56.167Z,7.00
2023-05-14T03:55:22.947Z,8.65
2023-05-14T03:57:49.615Z,8.02
2023-05-14T04:00:16.589Z,7.53
2023-05-14T04:02:48.069Z,8.10
2023-05-14T04:05:15.785Z,7.88
2023-05-14T04:07:42.408Z,6.68
2023-05-14T04:10:09.386Z,6.93
2023-05-14T04:12:36.149Z,7.57
2023-05-14T04:15:03.787Z,7.45
2023-05-14T04:17:30.651Z,7.75
2023-05-14T04:19:57.258Z,9.05
2023-05-14T04:22:24.208Z,8.25
2023-05-14T04:24:51.671Z,7.78
2023-05-14T04:27:21.606Z,8.45
2023-05-14T04:29:49.130Z,9.02
2023-05-14T04:32:15.770Z,8.40
2023-05-14T04:34:42.398Z,8.02
2023-05-14T04:37:08.992Z,8.85
2023-05-14T04:39:35.725Z,8.98
2023-05-14T04:42:02.296Z,6.82
2023-05-14T04:44:28.858Z,6.78
2023-05-14T04:46:55.806Z,7.75
2023-05-14T04:49:22.361Z,7.82
2023-05-14T04:51:49.421Z,8.80
2023-05-14T04:54:16.059Z,7.90
2023-05-14T04:56:42.670Z,7.95
2023-05-14T04:59:09.283Z,8.60
2023-05-14T05:01:38.659Z,8.60
2023-05-14T05:04:05.364Z,8.75
2023-05-14T05:06:32.342Z,9.35
2023-05-14T05:09:00.599Z,9.15
2023-05-14T05:11:28.593Z,7.97
2023-05-14T05:13:55.275Z,8.20
2023-05-14T05:16:21.900Z,8.80
2023-05-14T05:18:48.559Z,8.25
2023-05-14T05:21:15.170Z,8.05
2023-05-14T05:23:41.764Z,8.88
2023-05-14T05:26:08.530Z,9.50
2023-05-14T05:28:47.803Z,9.32
2023-05-14T05:31:14.704Z,9.90
2023-05-14T05:33:41.366Z,10.73
2023-05-14T05:36:08.607Z,9.93
2023-05-14T05:38:35.348Z,10.30
2023-05-14T05:41:01.917Z,9.80
2023-05-14T05:43:28.622Z,8.57
2023-05-14T05:45:57.287Z,9.13
2023-05-14T05:48:23.896Z,9.05
2023-05-14T05:51:01.314Z,8.90
2023-05-14T05:53:28.065Z,9.48
2023-05-14T05:55:54.733Z,9.98
2023-05-14T05:58:21.664Z,10.18
2023-05-14T06:00:48.644Z,10.32
2023-05-14T06:03:15.392Z,11.50
2023-05-14T06:05:42.162Z,10.38
2023-05-14T06:08:08.776Z,11.30
2023-05-14T06:10:36.236Z,10.60
2023-05-14T06:13:02.923Z,11.35
2023-05-14T06:15:29.508Z,12.50
2023-05-14T06:17:56.170Z,12.43
2023-05-14T06:20:22.937Z,11.77
2023-05-14T06:22:49.675Z,11.65
2023-05-14T06:25:16.244Z,10.45
2023-05-14T06:27:42.920Z,11.23
2023-05-14T06:30:11.172Z,12.07
2023-05-14T06:32:37.888Z,12.25
2023-05-14T06:35:04.879Z,12.27
2023-05-14T06:37:31.452Z,11.98
2023-05-14T06:39:58.305Z,11.50
2023-05-14T06:42:24.927Z,11.88
2023-05-14T06:44:51.498Z,11.77
2023-05-14T06:47:18.144Z,11.40
2023-05-14T06:49:44.740Z,11.10
2023-05-14T06:52:11.315Z,10.73
2023-05-14T06:54:37.864Z,10.93
2023-05-14T06:57:04.705Z,9.88
2023-05-14T06:59:31.370Z,10.27
2023-05-14T07:01:58.060Z,11.13
2023-05-14T07:04:24.708Z,10.82
2023-05-14T07:06:51.471Z,10.35
2023-05-14T07:09:18.132Z,9.90
2023-05-14T07:11:44.702Z,8.90
2023-05-14T07:14:11.317Z,9.50
2023-05-14T07:16:37.898Z,8.95
2023-05-14T07:19:04.523Z,9.68
2023-05-14T07:21:31.700Z,9.27
2023-05-14T07:24:01.218Z,10.55
2023-05-14T07:26:27.770Z,8.77
2023-05-14T07:28:54.484Z,8.55
2023-05-14T07:31:21.150Z,8.27
2023-05-14T07:33:47.778Z,9.30
2023-05-14T07:36:14.327Z,7.55
2023-05-14T07:38:40.928Z,7.13
2023-05-14T07:41:07.847Z,8.85
2023-05-14T07:43:34.573Z,7.70
2023-05-14T07:46:01.134Z,8.23
2023-05-14T07:48:27.763Z,8.18
2023-05-14T07:50:57.440Z,9.43
2023-05-14T07:53:24.929Z,11.05
2023-05-14T07:55:52.020Z,9.85
2023-05-14T07:58:18.703Z,10.50
2023-05-14T08:00:45.320Z,11.38
2023-05-14T08:03:11.964Z,10.15
2023-05-14T08:05:38.660Z,11.15
2023-05-14T08:08:05.232Z,12.07
2023-05-14T08:10:31.839Z,11.90
2023-05-14T08:12:58.410Z,11.10
2023-05-14T08:15:27.540Z,12.18
2023-05-14T08:17:54.668Z,10.52
2023-05-14T08:20:21.457Z,10.77
2023-05-14T08:22:51.022Z,11.52
2023-05-14T08:25:17.661Z,11.95
2023-05-14T08:27:44.316Z,10.38
2023-05-14T08:30:11.447Z,11.88
2023-05-14T08:32:38.659Z,11.60
2023-05-14T08:35:05.842Z,11.93
2023-05-14T08:37:32.453Z,12.10
2023-05-14T08:39:59.212Z,13.15
2023-05-14T08:42:26.977Z,12.45
2023-05-14T08:44:58.359Z,12.98
2023-05-14T08:47:25.379Z,12.32
2023-05-14T08:50:05.023Z,13.07
2023-05-14T08:52:34.334Z,12.40
2023-05-14T08:55:04.219Z,13.40
2023-05-14T08:57:32.472Z,12.70
2023-05-14T08:59:59.091Z,12.88
2023-05-14T09:02:28.918Z,14.57
2023-05-14T09:05:00.028Z,14.13
2023-05-14T09:07:27.077Z,11.98
2023-05-14T09:09:56.218Z,12.10
2023-05-14T09:12:23.180Z,12.90
2023-05-14T09:14:50.686Z,10.52
2023-05-14T09:17:18.367Z,11.88
2023-05-14T09:19:49.366Z,13.63
2023-05-14T09:22:19.414Z,11.27
2023-05-14T09:24:46.077Z,12.38
2023-05-14T09:27:20.543Z,11.70
2023-05-14T09:29:51.225Z,11.88
2023-05-14T09:32:17.858Z,11.13
2023-05-14T09:34:44.445Z,11.38
2023-05-14T09:37:11.022Z,11.25
2023-05-14T09:39:38.467Z,11.85
2023-05-14T09:42:05.666Z,10.48
2023-05-14T09:44:32.278Z,10.93
2023-05-14T09:46:58.985Z,10.52
2023-05-14T09:49:25.854Z,11.48
2023-05-14T09:51:52.489Z,9.95
2023-05-14T09:54:19.352Z,10.57
2023-05-14T09:56:46.170Z,10.70
2023-05-14T09:59:12.852Z,9.98
2023-05-14T10:01:42.297Z,9.55
2023-05-14T10:04:09.953Z,10.23
2023-05-14T10:06:38.375Z,9.70
2023-05-14T10:09:07.419Z,10.35
2023-05-14T10:11:38.045Z,10.30
2023-05-14T10:14:09.082Z,9.15
2023-05-14T10:16:38.266Z,8.80
2023-05-14T10:19:10.269Z,9.13
2023-05-14T10:21:38.487Z,8.68
2023-05-14T10:24:06.358Z,9.30
2023-05-14T10:26:39.038Z,9.68
2023-05-14T10:29:09.813Z,9.57
2023-05-14T10:31:56.044Z,9.55
2023-05-14T10:34:35.125Z,9.13
2023-05-14T10:37:02.773Z,10.88
2023-05-14T10:39:54.487Z,8.52
2023-05-14T10:42:25.773Z,9.57
2023-05-14T10:47:21.454Z,8.60
2023-05-14T10:49:52.949Z,8.95
2023-05-14T10:52:19.804Z,10.52
2023-05-14T10:54:53.360Z,9.18
2023-05-14T10:57:21.140Z,10.55
2023-05-14T10:59:49.295Z,9.65
2023-05-14T11:02:29.986Z,10.13
2023-05-14T11:05:03.692Z,9.70
2023-05-14T11:07:34.711Z,10.35
2023-05-14T11:10:03.471Z,9.77
2023-05-14T11:12:32.466Z,11.95
2023-05-14T11:15:00.840Z,10.35
2023-05-14T11:17:28.489Z,9.55
2023-05-14T11:19:58.977Z,10.57
2023-05-14T11:22:25.699Z,9.47
2023-05-14T11:24:52.505Z,8.55
2023-05-14T11:27:19.811Z,8.38
2023-05-14T11:29:47.439Z,9.52
2023-05-14T11:32:15.017Z,8.90
2023-05-14T11:34:42.910Z,10.27
2023-05-14T11:37:10.204Z,10.27
2023-05-14T11:39:39.602Z,9.77
2023-05-14T11:42:14.674Z,9.52
2023-05-14T11:44:44.317Z,9.15
2023-05-14T11:47:11.443Z,8.68
2023-05-14T11:49:38.311Z,8.10
2023-05-14T11:52:06.421Z,7.45
2023-05-14T11:54:34.395Z,6.68
2023-05-14T11:57:03.221Z,7.20
2023-05-14T11:59:31.887Z,5.88
2023-05-14T12:01:58.977Z,6.22
2023-05-14T12:04:25.751Z,7.05
2023-05-14T12:06:53.073Z,5.55
2023-05-14T12:09:22.946Z,7.13
2023-05-14T12:11:51.531Z,4.78
2023-05-14T12:14:22.754Z,5.70
2023-05-14T12:19:17.855Z,5.93
2023-05-14T12:21:46.568Z,5.07
2023-05-14T12:24:17.930Z,5.07
2023-05-14T12:29:13.474Z,4.63
2023-05-14T12:31:46.838Z,5.82
2023-05-14T12:34:13.453Z,5.55
2023-05-14T12:36:40.083Z,5.80
2023-05-14T12:39:06.852Z,5.32
2023-05-14T12:41:33.716Z,5.80
2023-05-14T12:44:02.095Z,5.50
2023-05-14T12:46:28.950Z,5.22
2023-05-14T12:48:55.971Z,5.70
2023-05-14T12:51:22.643Z,5.45
2023-05-14T12:53:49.672Z,4.95
2023-05-14T12:56:16.250Z,5.25
2023-05-14T12:58:43.186Z,4.88
2023-05-14T13:01:11.939Z,5.57
2023-05-14T13:03:38.636Z,5.60
2023-05-14T13:06:05.643Z,6.03
2023-05-14T13:08:49.999Z,6.05
2023-05-14T13:11:19.562Z,6.63
2023-05-14T13:13:46.131Z,6.93
2023-05-14T13:16:16.770Z,5.45
2023-05-14T13:18:43.533Z,5.65
2023-05-14T13:21:10.145Z,6.50
2023-05-14T13:23:36.888Z,5.65
2023-05-14T13:26:03.447Z,5.82
2023-05-14T13:28:36.164Z,6.30
2023-05-14T13:31:07.455Z,6.07
2023-05-14T13:33:40.713Z,5.82
2023-05-14T13:36:08.164Z,4.95
2023-05-14T13:38:35.038Z,6.15
2023-05-14T13:41:05.421Z,4.50
2023-05-14T13:43:33.045Z,4.28
2023-05-14T13:46:00.946Z,3.90
2023-05-14T13:48:30.340Z,5.22
2023-05-14T13:50:57.191Z,5.75
2023-05-14T13:53:24.980Z,5.22
2023-05-14T13:55:56.399Z,4.65
2023-05-14T13:58:24.305Z,5.13
2023-05-14T14:00:51.585Z,5.72
2023-05-14T14:03:18.533Z,6.53
2023-05-14T14:05:45.315Z,7.07
2023-05-14T14:08:22.491Z,5.32
2023-05-14T14:10:49.732Z,6.72
2023-05-14T14:13:16.369Z,12.02
2023-05-14T14:15:43.711Z,6.25
2023-05-14T14:18:10.516Z,6.88
2023-05-14T14:20:39.330Z,6.05
2023-05-14T14:23:05.977Z,6.68
2023-05-14T14:25:32.536Z,5.60
2023-05-14T14:27:59.148Z,5.25
2023-05-14T14:30:25.783Z,5.75
2023-05-14T14:32:52.497Z,5.35
2023-05-14T14:35:19.857Z,5.03
2023-05-14T14:37:50.524Z,5.57
2023-05-14T14:40:17.388Z,5.18
2023-05-14T14:42:44.301Z,5.63
2023-05-14T14:45:11.519Z,5.35
2023-05-14T14:47:38.308Z,4.82
2023-05-14T14:50:06.166Z,5.78
2023-05-14T14:52:33.020Z,5.97
2023-05-14T14:54:59.637Z,5.78
2023-05-14T14:57:26.829Z,6.55
2023-05-14T14:59:53.474Z,6.28
2023-05-14T15:02:20.282Z,5.43
2023-05-14T15:04:47.008Z,7.18
2023-05-14T15:07:15.918Z,6.68
2023-05-14T15:09:42.663Z,6.72
2023-05-14T15:12:10.696Z,4.93
2023-05-14T15:14:37.255Z,5.38
2023-05-14T15:17:04.423Z,5.43
2023-05-14T15:19:32.252Z,4.97
2023-05-14T15:21:58.801Z,5.35
2023-05-14T15:24:26.329Z,4.88
2023-05-14T15:26:53.635Z,6.53
2023-05-14T15:29:20.499Z,5.68
2023-05-14T15:31:47.249Z,6.28
2023-05-14T15:34:13.903Z,4.68
2023-05-14T15:36:41.655Z,5.68
2023-05-14T15:39:10.224Z,6.50
2023-05-14T15:41:36.970Z,5.13
2023-05-14T15:44:03.631Z,4.53
2023-05-14T15:46:33.083Z,5.72
2023-05-14T15:48:59.650Z,5.15
2023-05-14T15:51:26.260Z,5.53
2023-05-14T15:53:54.108Z,5.88
2023-05-14T15:56:22.261Z,6.07
2023-05-14T15:58:49.337Z,5.60
2023-05-14T16:01:15.926Z,5.13
2023-05-14T16:03:42.727Z,6.15
2023-05-14T16:06:09.692Z,7.00
2023-05-14T16:08:36.276Z,5.80
2023-05-14T16:11:02.847Z,6.13
2023-05-14T16:13:29.423Z,5.85
2023-05-14T16:15:56.001Z,5.63
2023-05-14T16:18:23.810Z,6.22
2023-05-14T16:20:50.362Z,5.60
2023-05-14T16:23:16.964Z,5.43
2023-05-14T16:25:43.751Z,5.57
2023-05-14T16:28:10.340Z,4.88
2023-05-14T16:30:37.261Z,4.95
2023-05-14T16:33:03.928Z,4.63
2023-05-14T16:35:30.575Z,5.18
2023-05-14T16:37:57.181Z,5.72
2023-05-14T16:40:24.100Z,5.53
2023-05-14T16:42:51.316Z,5.20
2023-05-14T16:45:18.015Z,5.35
2023-05-14T16:47:44.627Z,5.82
2023-05-14T16:50:11.308Z,4.82
2023-05-14T16:52:37.868Z,4.63
2023-05-14T16:55:04.818Z,4.68
2023-05-14T16:57:31.597Z,4.38
2023-05-14T16:59:58.190Z,6.63
2023-05-14T17:02:25.544Z,6.32
2023-05-14T17:04:54.119Z,6.45
2023-05-14T17:07:20.721Z,6.95
2023-05-14T17:09:47.327Z,7.93
2023-05-14T17:12:13.909Z,5.63
2023-05-14T17:14:40.495Z,5.78
2023-05-14T17:17:07.056Z,6.82
2023-05-14T17:19:33.657Z,6.85
2023-05-14T17:22:00.510Z,5.75
2023-05-14T17:24:27.089Z,6.22
2023-05-14T17:26:53.728Z,6.10
2023-05-14T17:29:20.315Z,5.65
2023-05-14T17:31:48.277Z,5.28
2023-05-14T17:34:17.033Z,5.80
2023-05-14T17:36:43.716Z,6.45
2023-05-14T17:39:10.516Z,6.00
2023-05-14T17:41:37.130Z,6.10
2023-05-14T17:44:07.813Z,6.22
2023-05-14T17:46:35.549Z,6.20
2023-05-14T17:49:02.233Z,5.97
2023-05-14T17:51:28.853Z,5.50
2023-05-14T17:53:56.237Z,5.53
2023-05-14T17:56:22.937Z,5.22
2023-05-14T17:58:49.674Z,5.50
2023-05-14T18:01:16.287Z,5.50
2023-05-14T18:03:45.004Z,5.68
2023-05-14T18:06:11.730Z,5.10
2023-05-14T18:08:38.285Z,4.97
2023-05-14T18:11:04.895Z,5.15
2023-05-14T18:13:31.458Z,5.35
2023-05-14T18:15:58.082Z,5.65
2023-05-14T18:18:24.668Z,5.60
2023-05-14T18:20:51.881Z,5.45
2023-05-14T18:23:18.803Z,5.20
2023-05-14T18:25:45.411Z,5.28
2023-05-14T18:28:12.011Z,5.53
2023-05-14T18:30:38.624Z,5.05
2023-05-14T18:33:05.492Z,4.50
2023-05-14T18:35:32.161Z,4.93
2023-05-14T18:37:58.789Z,5.75
2023-05-14T18:40:25.371Z,5.68
2023-05-14T18:42:51.970Z,5.82
2023-05-14T18:45:18.560Z,6.78
2023-05-14T18:47:45.239Z,7.15
2023-05-14T18:50:13.762Z,6.28
2023-05-14T18:52:43.077Z,5.10
2023-05-14T18:55:12.377Z,6.30
2023-05-14T18:57:38.971Z,5.38
2023-05-14T19:00:06.346Z,5.50
2023-05-14T19:02:32.993Z,5.07
2023-05-14T19:04:59.650Z,5.18
2023-05-14T19:07:27.587Z,5.05
2023-05-14T19:09:54.226Z,5.45
2023-05-14T19:12:20.809Z,4.95
2023-05-14T19:14:47.405Z,6.30
2023-05-14T19:17:13.993Z,5.65
2023-05-14T19:19:40.709Z,6.50
2023-05-14T19:22:07.365Z,5.38
2023-05-14T19:24:34.014Z,5.00
2023-05-14T19:27:00.841Z,5.38
2023-05-14T19:29:27.440Z,6.43
2023-05-14T19:31:54.120Z,6.53
2023-05-14T19:34:20.791Z,5.00
2023-05-14T19:36:47.478Z,6.53
2023-05-14T19:39:14.101Z,6.50
2023-05-14T19:41:40.708Z,6.35
2023-05-14T19:44:07.393Z,6.32
2023-05-14T19:46:34.119Z,6.75
2023-05-14T19:49:01.195Z,6.78
2023-05-14T19:51:27.856Z,8.50
2023-05-14T19:53:54.515Z,6.55
2023-05-14T19:56:21.631Z,6.18
2023-05-14T19:58:48.351Z,6.15
2023-05-14T20:01:15.077Z,5.68
2023-05-14T20:03:43.921Z,6.93
2023-05-14T20:06:10.945Z,6.38
2023-05-14T20:08:37.502Z,6.20
2023-05-14T20:11:04.069Z,5.13
2023-05-14T20:13:35.448Z,5.93
2023-05-14T20:18:28.546Z,6.80
2023-05-14T20:20:55.808Z,5.65
2023-05-14T20:23:22.396Z,6.22
2023-05-14T20:25:48.974Z,5.80
2023-05-14T20:28:15.559Z,5.97
2023-05-14T20:30:42.448Z,5.90
2023-05-14T20:33:09.221Z,5.05
2023-05-14T20:35:36.015Z,5.18
2023-05-14T20:38:03.689Z,5.15
2023-05-14T20:40:30.811Z,6.03
2023-05-14T20:42:57.434Z,5.78
2023-05-14T20:45:27.074Z,6.25
2023-05-14T20:47:54.019Z,5.57
2023-05-14T20:50:21.488Z,6.18
2023-05-14T20:52:48.147Z,5.28
2023-05-14T20:55:14.957Z,5.00
2023-05-14T20:57:42.299Z,5.60
2023-05-14T21:00:10.923Z,5.80
2023-05-14T21:02:37.934Z,5.40
2023-05-14T21:05:04.954Z,4.85
2023-05-14T21:07:31.754Z,4.63
2023-05-14T21:09:58.528Z,5.80
2023-05-14T21:12:25.176Z,4.88
2023-05-14T21:14:51.724Z,5.78
2023-05-14T21:17:18.494Z,5.47
2023-05-14T21:19:45.063Z,5.32
2023-05-14T21:22:12.451Z,4.82
2023-05-14T21:24:39.025Z,5.05
2023-05-14T21:27:05.996Z,5.35
2023-05-14T21:29:32.570Z,6.90
2023-05-14T21:31:59.287Z,6.53
2023-05-14T21:34:25.945Z,5.88
2023-05-14T21:36:52.520Z,6.43
2023-05-14T21:39:19.934Z,7.20
2023-05-14T21:41:46.511Z,5.68
2023-05-14T21:44:13.068Z,4.65
2023-05-14T21:46:39.765Z,5.88
2023-05-14T21:49:06.412Z,5.05
2023-05-14T21:51:33.106Z,4.82
2023-05-14T21:53:59.711Z,5.38
2023-05-14T21:56:26.329Z,4.85
2023-05-14T21:58:55.441Z,5.43
2023-05-14T22:01:22.220Z,4.90
2023-05-14T22:03:49.051Z,5.57
2023-05-14T22:06:15.723Z,5.13
2023-05-14T22:08:42.537Z,5.55
2023-05-14T22:11:09.096Z,5.82
2023-05-14T22:13:40.665Z,5.53
2023-05-14T22:18:41.174Z,6.60
2023-05-14T22:21:07.925Z,6.55
2023-05-14T22:23:37.524Z,5.85
2023-05-14T22:26:04.516Z,5.63
2023-05-14T22:28:31.129Z,5.70
2023-05-14T22:30:59.699Z,6.38
2023-05-14T22:33:26.402Z,7.22
2023-05-14T22:35:53.037Z,5.82
2023-05-14T22:38:20.321Z,5.63
2023-05-14T22:40:47.160Z,5.78
2023-05-14T22:43:13.781Z,6.10
2023-05-14T22:45:40.373Z,6.22
2023-05-14T22:48:07.090Z,4.90
2023-05-14T22:50:33.739Z,4.72
2023-05-14T22:53:00.430Z,5.00
2023-05-14T22:55:27.387Z,4.38
2023-05-14T22:57:54.345Z,4.45
2023-05-14T23:00:21.303Z,4.72
2023-05-14T23:02:48.419Z,4.80
2023-05-14T23:05:15.076Z,4.85
2023-05-14T23:07:41.662Z,5.38
2023-05-14T23:10:08.623Z,5.35
2023-05-14T23:12:35.228Z,4.90
2023-05-14T23:15:01.837Z,4.68
2023-05-14T23:17:28.674Z,5.10
2023-05-14T23:19:55.458Z,5.30
2023-05-14T23:22:22.076Z,5.43
2023-05-14T23:24:48.671Z,4.90
2023-05-14T23:27:15.271Z,5.55
2023-05-14T23:29:41.885Z,4.57
2023-05-14T23:32:08.628Z,4.87
2023-05-14T23:34:35.379Z,4.57
2023-05-14T23:37:02.407Z,5.45
2023-05-14T23:39:29.008Z,5.38
2023-05-14T23:41:55.613Z,4.97
2023-05-14T23:44:22.180Z,5.60
2023-05-14T23:46:48.789Z,6.15
2023-05-14T23:49:15.433Z,5.18
2023-05-14T23:51:42.092Z,5.05
2023-05-14T23:54:08.702Z,5.53
2023-05-14T23:56:35.702Z,4.60
2023-05-14T23:59:05.350Z,5.00
